createdAt,value
2018-03-31T09:16:05.924Z,88.60
2018-03-31T09:18:33.184Z,89.20
2018-03-31T09:30:23.752Z,88.30
2018-03-31T09:35:27.827Z,88.50
2018-03-31T09:37:55.602Z,86.00
2018-03-31T09:40:23.372Z,86.20
2018-03-31T09:42:51.296Z,85.50
2018-03-31T09:45:18.268Z,84.90
2018-03-31T09:47:46.853Z,83.30
2018-03-31T09:50:14.608Z,85.00
2018-03-31T09:52:41.601Z,84.60
2018-03-31T09:55:08.789Z,80.20
2018-03-31T09:57:36.744Z,80.30
2018-03-31T10:00:03.803Z,80.70
2018-03-31T10:02:32.460Z,81.80
2018-03-31T10:05:00.263Z,80.00
2018-03-31T10:07:27.248Z,80.90
2018-03-31T10:09:54.212Z,80.00
2018-03-31T10:12:21.176Z,76.30
2018-03-31T10:14:48.647Z,77.50
2018-03-31T10:17:15.635Z,72.90
2018-03-31T10:19:42.612Z,72.90
2018-03-31T10:22:09.565Z,72.40
2018-03-31T10:24:36.528Z,73.30
2018-03-31T10:27:03.483Z,68.20
2018-03-31T10:29:30.468Z,66.00
2018-03-31T10:31:57.442Z,66.70
2018-03-31T10:34:24.410Z,67.50
2018-03-31T10:36:51.368Z,65.80
2018-03-31T10:39:19.108Z,65.70
2018-03-31T10:41:46.150Z,65.60
2018-03-31T10:44:13.067Z,63.00
2018-03-31T10:46:40.036Z,59.80
2018-03-31T10:49:07.009Z,60.70
2018-03-31T10:51:34.835Z,60.50
2018-03-31T10:54:02.507Z,60.80
2018-03-31T10:56:29.465Z,60.60
2018-03-31T10:58:56.435Z,58.50
2018-03-31T11:01:23.420Z,60.00
2018-03-31T11:03:50.400Z,60.50
2018-03-31T11:06:17.376Z,60.00
2018-03-31T11:08:45.110Z,56.20
2018-03-31T11:11:11.868Z,59.30
2018-03-31T11:13:39.603Z,57.70
2018-03-31T11:16:06.581Z,57.70
2018-03-31T11:18:34.319Z,57.50
2018-03-31T11:21:01.295Z,57.50
2018-03-31T11:23:28.819Z,56.40
2018-03-31T11:25:55.599Z,56.40
2018-03-31T11:28:22.581Z,53.90
2018-03-31T11:30:49.541Z,53.10
2018-03-31T11:33:16.504Z,52.10
2018-03-31T11:35:43.268Z,51.90
2018-03-31T11:38:10.025Z,51.70
2018-03-31T11:40:37.003Z,53.50
2018-03-31T11:43:03.767Z,53.50
2018-03-31T11:45:30.531Z,56.10
2018-03-31T11:47:58.900Z,54.20
2018-03-31T11:50:26.648Z,53.60
2018-03-31T11:52:53.611Z,53.50
2018-03-31T11:55:21.347Z,53.90
2018-03-31T11:57:48.105Z,53.90
2018-03-31T12:00:14.910Z,52.50
2018-03-31T12:02:41.871Z,50.60
2018-03-31T12:05:08.831Z,52.00
2018-03-31T12:07:36.579Z,48.70
2018-03-31T12:10:03.544Z,48.80
2018-03-31T12:12:31.092Z,51.90
2018-03-31T12:14:58.048Z,51.60
2018-03-31T12:17:25.783Z,51.20
2018-03-31T12:19:52.539Z,51.20
2018-03-31T12:22:20.096Z,49.20
2018-03-31T12:24:47.654Z,48.70
2018-03-31T12:27:15.199Z,51.30
2018-03-31T12:29:41.963Z,51.30
2018-03-31T12:32:08.740Z,51.50
2018-03-31T12:34:35.502Z,46.50
2018-03-31T12:37:02.291Z,46.70
2018-03-31T12:39:29.062Z,46.40
2018-03-31T12:41:55.827Z,50.80
2018-03-31T12:44:22.606Z,50.50
2018-03-31T12:46:50.150Z,53.00
2018-03-31T12:49:16.907Z,52.90
2018-03-31T12:51:44.657Z,51.20
2018-03-31T12:54:11.608Z,51.10
2018-03-31T12:56:39.357Z,51.10
2018-03-31T12:59:06.322Z,51.10
2018-03-31T13:01:33.288Z,50.60
2018-03-31T13:04:00.267Z,49.60
2018-03-31T13:06:27.236Z,50.10
2018-03-31T13:09:00.175Z,47.90
2018-03-31T13:11:27.136Z,48.30
2018-03-31T13:13:54.110Z,48.90
2018-03-31T13:16:21.124Z,47.10
2018-03-31T13:18:48.064Z,47.70
2018-03-31T13:21:15.033Z,47.40
2018-03-31T13:23:42.000Z,46.20
2018-03-31T13:26:09.735Z,46.60
2018-03-31T13:28:36.704Z,46.10
2018-03-31T13:31:03.667Z,46.80
2018-03-31T13:33:31.407Z,44.90
2018-03-31T13:35:58.361Z,44.80
2018-03-31T13:38:26.112Z,44.80
2018-03-31T13:40:53.063Z,44.70
2018-03-31T13:43:20.032Z,43.50
2018-03-31T13:45:47.755Z,43.90
2018-03-31T13:48:14.738Z,43.90
2018-03-31T13:50:42.469Z,44.30
2018-03-31T13:53:09.440Z,44.40
2018-03-31T13:55:37.173Z,44.60
2018-03-31T13:58:04.151Z,44.50
2018-03-31T14:00:31.883Z,45.80
2018-03-31T14:02:58.847Z,44.30
2018-03-31T14:05:26.579Z,43.50
2018-03-31T14:07:53.552Z,43.50
2018-03-31T14:10:21.280Z,45.60
2018-03-31T14:12:48.635Z,45.30
2018-03-31T14:15:15.596Z,44.20
2018-03-31T14:17:42.551Z,41.10
2018-03-31T14:20:09.521Z,43.30
2018-03-31T14:22:36.503Z,43.40
2018-03-31T14:25:03.476Z,43.90
2018-03-31T14:27:30.437Z,42.90
2018-03-31T14:29:58.209Z,45.20
2018-03-31T14:32:25.200Z,45.10
2018-03-31T14:34:52.191Z,44.20
2018-03-31T14:37:19.916Z,45.30
2018-03-31T14:39:46.888Z,45.30
2018-03-31T14:42:13.847Z,48.20
2018-03-31T14:44:40.834Z,46.60
2018-03-31T14:47:07.800Z,46.70
2018-03-31T14:49:34.768Z,44.90
2018-03-31T14:52:01.728Z,44.20
2018-03-31T14:54:28.720Z,44.50
2018-03-31T14:56:55.685Z,45.90
2018-03-31T14:59:22.652Z,46.10
2018-03-31T15:01:49.603Z,45.40
2018-03-31T15:04:17.359Z,46.00
2018-03-31T15:06:44.316Z,45.60
2018-03-31T15:09:11.299Z,47.70
2018-03-31T15:11:38.263Z,48.70
2018-03-31T15:14:05.250Z,46.60
2018-03-31T15:16:33.325Z,47.50
2018-03-31T15:19:01.274Z,46.90
2018-03-31T15:21:29.068Z,46.50
2018-03-31T15:23:56.049Z,48.30
2018-03-31T15:26:23.011Z,49.30
2018-03-31T15:28:49.975Z,49.90
2018-03-31T15:31:16.936Z,50.40
2018-03-31T15:33:44.879Z,50.40
2018-03-31T15:36:11.850Z,50.90
2018-03-31T15:38:38.824Z,51.40
2018-03-31T15:41:06.073Z,52.40
2018-03-31T15:43:33.044Z,53.30
2018-03-31T15:46:00.079Z,53.90
2018-03-31T15:48:27.080Z,54.40
2018-03-31T15:50:54.048Z,54.00
2018-03-31T15:53:21.012Z,52.60
2018-03-31T15:55:48.243Z,54.50
2018-03-31T15:58:15.250Z,54.50
2018-03-31T16:00:42.359Z,55.40
2018-03-31T16:03:09.394Z,55.00
2018-03-31T16:05:36.392Z,54.80
2018-03-31T16:08:03.397Z,54.50
2018-03-31T16:10:30.402Z,56.10
2018-03-31T16:12:57.391Z,56.30
2018-03-31T16:15:24.448Z,56.30
2018-03-31T16:17:51.745Z,58.10
2018-03-31T16:20:19.136Z,56.40
2018-03-31T16:22:46.136Z,56.60
2018-03-31T16:25:13.889Z,57.10
2018-03-31T16:27:40.935Z,57.10
2018-03-31T16:30:07.904Z,55.60
2018-03-31T16:32:34.890Z,54.10
2018-03-31T16:35:01.865Z,55.00
2018-03-31T16:37:28.860Z,55.00
2018-03-31T16:39:55.908Z,53.80
2018-03-31T16:42:28.476Z,53.30
2018-03-31T16:47:26.971Z,53.20
2018-03-31T16:49:54.477Z,51.60
2018-03-31T16:52:31.203Z,50.40
2018-03-31T16:54:58.592Z,49.90
2018-03-31T16:57:25.685Z,50.10
2018-03-31T16:59:52.765Z,50.10
2018-03-31T17:20:36.563Z,48.80
2018-03-31T17:28:30.696Z,50.30
2018-03-31T17:33:36.223Z,51.00
2018-03-31T17:50:03.288Z,54.70
